createdAt,value
2022-10-31T00:01:35.846Z,26.15
2022-10-31T00:06:34.752Z,28.13
2022-10-31T00:11:33.823Z,22.85
2022-10-31T00:16:33.003Z,27.40
2022-10-31T00:21:33.123Z,25.98
2022-10-31T00:26:33.206Z,26.35
2022-10-31T00:31:31.971Z,25.75
2022-10-31T00:36:32.150Z,24.33
2022-10-31T00:41:31.005Z,24.25
2022-10-31T00:46:29.721Z,28.35
2022-10-31T00:51:28.393Z,25.73
2022-10-31T00:56:27.170Z,22.75
2022-10-31T01:01:26.218Z,23.70
2022-10-31T01:06:25.128Z,21.80
2022-10-31T01:11:24.446Z,22.70
2022-10-31T01:16:25.914Z,21.73
2022-10-31T01:21:28.050Z,26.98
2022-10-31T01:26:32.192Z,18.98
2022-10-31T01:31:37.267Z,22.85
2022-10-31T01:36:38.668Z,21.48
2022-10-31T01:41:43.380Z,22.33
2022-10-31T01:46:47.847Z,20.88
2022-10-31T01:51:53.670Z,18.08
2022-10-31T01:56:56.737Z,15.85
2022-10-31T02:01:55.869Z,16.73
2022-10-31T02:07:03.559Z,23.77
2022-10-31T02:12:03.871Z,20.95
2022-10-31T02:17:02.842Z,18.55
2022-10-31T02:22:07.744Z,15.05
2022-10-31T02:27:33.589Z,18.58
2022-10-31T02:32:38.441Z,18.05
2022-10-31T02:37:51.447Z,17.55
2022-10-31T02:48:19.858Z,15.80
2022-10-31T02:53:18.777Z,18.77
2022-10-31T02:58:23.825Z,19.70
2022-10-31T03:04:01.489Z,19.25
2022-10-31T03:09:38.729Z,16.08
2022-10-31T03:14:49.336Z,15.38
2022-10-31T03:19:52.988Z,16.90
2022-10-31T03:24:53.832Z,16.45
2022-10-31T03:29:57.144Z,17.70
2022-10-31T03:35:00.419Z,15.38
2022-10-31T03:40:03.090Z,18.40
2022-10-31T03:45:06.577Z,17.38
2022-10-31T03:50:08.609Z,20.48
2022-10-31T03:55:16.946Z,15.77
2022-10-31T04:00:17.635Z,15.85
2022-10-31T04:05:20.991Z,15.68
2022-10-31T04:10:22.232Z,13.15
2022-10-31T04:15:23.810Z,13.75
2022-10-31T04:20:37.624Z,16.20
2022-10-31T04:25:37.627Z,13.57
2022-10-31T04:30:36.730Z,13.57
2022-10-31T04:35:36.118Z,11.00
2022-10-31T04:40:34.905Z,12.10
2022-10-31T04:46:05.973Z,13.52
2022-10-31T04:51:04.924Z,15.25
2022-10-31T04:56:04.864Z,13.05
2022-10-31T05:01:10.879Z,14.60
2022-10-31T05:06:09.749Z,14.35
2022-10-31T05:11:12.832Z,12.73
2022-10-31T05:16:11.960Z,12.68
2022-10-31T05:21:30.981Z,12.48
2022-10-31T05:26:35.078Z,14.15
2022-10-31T05:31:33.842Z,15.48
2022-10-31T05:36:33.669Z,12.82
2022-10-31T05:41:42.481Z,14.10
2022-10-31T05:46:48.087Z,10.82
2022-10-31T05:52:05.562Z,20.70
2022-10-31T05:57:11.491Z,14.40
2022-10-31T06:02:10.259Z,12.77
2022-10-31T06:07:27.740Z,14.55
2022-10-31T06:12:26.592Z,11.20
2022-10-31T06:18:03.430Z,10.52
2022-10-31T06:23:07.461Z,13.20
2022-10-31T06:28:07.254Z,13.55
2022-10-31T06:33:24.622Z,12.23
2022-10-31T06:38:33.034Z,13.32
2022-10-31T06:43:33.674Z,11.73
2022-10-31T06:48:51.324Z,9.98
2022-10-31T06:54:04.931Z,11.40
2022-10-31T06:59:03.882Z,9.13
2022-10-31T07:04:38.224Z,11.90
2022-10-31T07:09:37.254Z,8.63
2022-10-31T07:14:37.367Z,11.23
2022-10-31T07:19:36.318Z,16.05
2022-10-31T07:24:35.601Z,18.10
2022-10-31T07:30:04.344Z,9.63
2022-10-31T07:35:04.987Z,9.88
2022-10-31T07:40:19.434Z,9.40
2022-10-31T07:45:20.358Z,9.32
2022-10-31T07:50:42.120Z,8.43
2022-10-31T07:56:03.938Z,8.40
2022-10-31T08:01:02.902Z,9.07
2022-10-31T08:06:11.454Z,7.13
2022-10-31T08:11:30.641Z,10.80
2022-10-31T08:16:30.631Z,9.45
2022-10-31T08:21:33.758Z,8.25
2022-10-31T08:26:33.657Z,8.13
2022-10-31T08:31:34.475Z,7.03
2022-10-31T08:36:54.228Z,9.70
2022-10-31T08:41:59.653Z,10.40
2022-10-31T08:46:58.443Z,11.05
2022-10-31T08:51:57.159Z,8.60
2022-10-31T08:57:00.049Z,11.82
2022-10-31T09:02:19.151Z,11.60
2022-10-31T09:07:21.777Z,7.88
2022-10-31T09:17:27.727Z,8.93
2022-10-31T09:22:46.849Z,10.73
2022-10-31T09:27:45.693Z,8.50
2022-10-31T09:32:44.404Z,8.18
2022-10-31T09:37:43.104Z,8.00
2022-10-31T09:43:16.793Z,9.68
2022-10-31T09:48:54.072Z,9.75
2022-10-31T09:54:12.375Z,7.00
2022-10-31T09:59:29.228Z,8.40
2022-10-31T10:04:33.804Z,10.52
2022-10-31T10:09:42.122Z,17.63
2022-10-31T10:15:16.614Z,11.20
2022-10-31T10:20:33.648Z,7.10
2022-10-31T10:25:41.024Z,7.15
2022-10-31T10:30:52.065Z,8.18
2022-10-31T10:36:01.326Z,7.32
2022-10-31T10:41:05.246Z,7.03
2022-10-31T10:46:44.337Z,7.00
2022-10-31T10:52:19.236Z,7.35
2022-10-31T10:57:25.329Z,6.97
2022-10-31T11:02:27.011Z,8.25
2022-10-31T11:07:25.810Z,5.97
2022-10-31T11:12:33.496Z,10.32
2022-10-31T11:17:34.110Z,9.73
2022-10-31T11:22:33.273Z,15.80
2022-10-31T11:27:32.363Z,13.52
2022-10-31T11:32:31.212Z,10.57
2022-10-31T11:37:36.480Z,8.65
2022-10-31T11:42:43.647Z,13.23
2022-10-31T11:47:56.737Z,13.85
2022-10-31T11:52:58.312Z,9.20
2022-10-31T11:57:57.362Z,9.13
2022-10-31T12:03:17.835Z,7.75
2022-10-31T12:08:16.619Z,11.88
2022-10-31T12:14:03.490Z,10.65
2022-10-31T12:19:07.507Z,10.55
2022-10-31T12:24:20.017Z,13.98
2022-10-31T12:29:32.237Z,12.65
2022-10-31T12:34:52.968Z,11.73
2022-10-31T12:40:04.988Z,14.05
2022-10-31T12:45:14.259Z,11.07
2022-10-31T12:50:36.165Z,13.40
2022-10-31T12:55:47.793Z,13.13
2022-10-31T13:00:57.933Z,13.82
2022-10-31T13:06:00.149Z,11.18
2022-10-31T13:11:21.360Z,11.07
2022-10-31T13:16:25.113Z,9.35
2022-10-31T13:21:50.640Z,13.27
2022-10-31T13:26:53.391Z,9.00
2022-10-31T13:31:52.386Z,7.75
2022-10-31T13:37:01.474Z,10.30
2022-10-31T13:42:43.429Z,9.57
2022-10-31T13:47:44.159Z,7.82
2022-10-31T13:52:43.797Z,7.65
2022-10-31T13:57:46.006Z,12.40
2022-10-31T14:02:49.540Z,8.00
2022-10-31T14:07:48.844Z,8.32
2022-10-31T14:12:49.366Z,11.48
2022-10-31T14:17:51.537Z,8.80
2022-10-31T14:22:51.120Z,8.30
2022-10-31T14:27:52.992Z,7.68
2022-10-31T14:33:23.024Z,9.23
2022-10-31T14:38:45.408Z,9.68
2022-10-31T14:44:14.944Z,8.45
2022-10-31T14:49:43.110Z,7.18
2022-10-31T14:54:47.182Z,10.27
2022-10-31T14:59:54.630Z,11.75
2022-10-31T15:04:56.683Z,10.50
2022-10-31T15:10:00.644Z,11.25
2022-10-31T15:15:12.793Z,8.85
2022-10-31T15:20:18.089Z,8.63
2022-10-31T15:25:22.360Z,12.05
2022-10-31T15:30:28.343Z,9.50
2022-10-31T15:35:29.521Z,12.23
2022-10-31T15:40:29.258Z,14.52
2022-10-31T15:45:31.461Z,11.60
2022-10-31T15:50:41.343Z,14.82
2022-10-31T15:55:50.054Z,12.43
2022-10-31T16:01:25.389Z,11.38
2022-10-31T16:06:24.306Z,16.23
2022-10-31T16:11:34.998Z,22.42
2022-10-31T16:16:36.519Z,18.73
2022-10-31T16:21:38.279Z,16.98
2022-10-31T16:26:40.118Z,13.55
2022-10-31T16:31:41.484Z,13.52
2022-10-31T16:36:40.796Z,17.10
2022-10-31T16:41:42.288Z,16.00
2022-10-31T16:46:41.135Z,19.02
2022-10-31T16:51:39.877Z,17.35
2022-10-31T16:56:39.317Z,18.23
2022-10-31T17:01:39.897Z,17.90
2022-10-31T17:06:38.569Z,13.30
2022-10-31T17:11:43.073Z,16.17
2022-10-31T17:16:44.269Z,19.65
2022-10-31T17:21:42.955Z,27.80
2022-10-31T17:26:42.374Z,28.30
2022-10-31T17:31:42.386Z,28.42
2022-10-31T17:36:41.211Z,33.58
2022-10-31T17:41:39.870Z,38.90
2022-10-31T17:46:39.158Z,41.80
2022-10-31T17:51:38.244Z,43.75
2022-10-31T17:56:36.900Z,39.70
2022-10-31T18:01:35.744Z,44.65
2022-10-31T18:06:34.618Z,39.15
2022-10-31T18:11:33.439Z,35.47
2022-10-31T18:16:32.478Z,33.42
2022-10-31T18:21:32.554Z,26.80
2022-10-31T18:26:31.645Z,25.65
2022-10-31T18:31:30.485Z,28.65
2022-10-31T18:36:29.232Z,28.27
2022-10-31T18:41:27.992Z,26.42
2022-10-31T18:46:27.923Z,31.02
2022-10-31T18:51:27.373Z,27.15
2022-10-31T18:56:28.077Z,25.80
2022-10-31T19:01:26.852Z,25.00
2022-10-31T19:06:27.386Z,24.70
2022-10-31T19:11:26.499Z,24.17
2022-10-31T19:16:25.274Z,22.08
2022-10-31T19:21:24.536Z,22.52
2022-10-31T19:26:24.854Z,23.52
2022-10-31T19:31:24.206Z,22.88
2022-10-31T19:36:23.824Z,23.48
2022-10-31T19:41:26.214Z,23.73
2022-10-31T19:46:51.755Z,23.52
2022-10-31T19:51:44.068Z,15.77
2022-10-31T19:56:42.777Z,19.50
2022-10-31T20:01:41.730Z,25.40
2022-10-31T20:06:41.396Z,20.83
2022-10-31T20:11:40.883Z,29.95
2022-10-31T20:16:39.853Z,22.58
2022-10-31T20:21:40.550Z,23.38
2022-10-31T20:26:40.803Z,23.33
2022-10-31T20:31:40.022Z,17.58
2022-10-31T20:36:38.868Z,22.17
2022-10-31T20:41:38.545Z,22.70
2022-10-31T20:46:37.306Z,19.52
2022-10-31T20:51:36.407Z,20.23
2022-10-31T20:56:35.459Z,21.00
2022-10-31T21:01:36.691Z,23.17
2022-10-31T21:06:35.666Z,22.55
2022-10-31T21:11:34.609Z,24.80
2022-10-31T21:16:36.247Z,24.50
2022-10-31T21:21:37.015Z,26.77
2022-10-31T21:26:39.514Z,14.57
2022-10-31T21:31:40.050Z,27.40
2022-10-31T21:36:39.208Z,25.20
2022-10-31T21:41:37.977Z,26.35
2022-10-31T21:46:38.986Z,27.20
2022-10-31T21:51:37.781Z,23.10
2022-10-31T21:56:36.885Z,25.70
2022-10-31T22:01:36.159Z,26.17
2022-10-31T22:06:36.029Z,24.95
2022-10-31T22:11:35.052Z,22.90
2022-10-31T22:16:36.347Z,25.50
2022-10-31T22:21:44.227Z,23.25
2022-10-31T22:26:43.095Z,28.10
2022-10-31T22:31:44.338Z,24.65
2022-10-31T22:36:44.563Z,22.65
2022-10-31T22:41:43.238Z,25.92
2022-10-31T22:46:41.974Z,23.52
2022-10-31T22:51:41.678Z,27.05
2022-10-31T22:56:40.557Z,29.63
2022-10-31T23:01:39.639Z,28.40
2022-10-31T23:06:39.033Z,32.40
2022-10-31T23:11:39.595Z,32.40
2022-10-31T23:16:47.608Z,29.33
2022-10-31T23:21:55.018Z,35.50
2022-10-31T23:27:10.921Z,35.42
2022-10-31T23:32:36.129Z,28.05
2022-10-31T23:37:37.172Z,32.28
2022-10-31T23:42:35.915Z,30.25
2022-10-31T23:47:35.821Z,33.40
2022-10-31T23:52:37.158Z,31.17
2022-10-31T23:57:35.931Z,43.33
